Tropical Cyclones
[Index]
Main Index Home Page Stock Weather Photos Extreme Storms Discussion Storm News and Storm Chasing Reports Tropical Cyclones / Hurricanes / Typhoons Weather Data and Links Wild Fires / Bushfires Weather Observation Techniques Weather Picture Catalogue Tornado Pictures and Reports Stock Video Footage and DVDs for sale
Season 2008-2009 Tropical Cyclone JONI Track Map
Season 2008-2009 Summaries: [BoM-AU] [JTWC-AU] [JTWC-SIO] [JTWC-SPAC] [JTWC-SH]
<<- Previous TC | JTWC 2008-2009 Season | Next TC ->>

click for intensity scale information  Lat/long Grid: Show Hide

 Date Labels: Show Hide

Joint Typhoon Warning Centre Cyclone Data

Name: JONI

10 Mar 2009 00:00 UTC to 14 Mar 2009 12:00 UTC

    date/time    lat    long     hPa   cat  kts
2009-03-10 00   18.6   156.2W   1004         25          
2009-03-10 06   19.1   156.8W   1004         25          
2009-03-10 12   19.6   157.4W   1004         25          
2009-03-10 18   20.1   157.7W   1000         30          
2009-03-11 00   20.6   157.9W   1000         30          
2009-03-11 06   21.1   158.1W    996         35          
2009-03-11 12   21.7   158.2W    993    1    40          
2009-03-11 18   22.1   158.2W    982    2    55          
2009-03-11 18   22.1   158.2W    982    2    55          
2009-03-12 00   22.6   158.7W    982    2    55          
2009-03-12 06   23.3   158.8W    982    2    55          
2009-03-12 12   23.9   159.1W    982    2    55          
2009-03-12 18   24.9   159.3W    982    2    55          
2009-03-12 18   24.9   159.3W    982    2    55          
2009-03-13 00   26.1   159.3W    982    2    55          
2009-03-13 00   26.1   159.3W    982    2    55          
2009-03-13 06   27.7   159.2W    982    2    55          
2009-03-13 06   27.7   159.2W    982    2    55          
2009-03-13 12   29.4   159.2W    989    1    45          
2009-03-13 18   31.5   158.8W    996         35          
2009-03-14 00   33.9   158.3W    996         35          
2009-03-14 06   35.8   157.5W    996         35          
2009-03-14 12   37.4   156.1W   1000         30          
Winds are 1-min average.

Tropical cyclone tracks developed by Michael Bath using data from the Joint Typhoon Warning Centre Best Tracks and Google Maps.


[Australian Severe Weather index] [Copyright Notice] [Email Contacts] [Search This Site] [Privacy Policy]
Document: tropical_cyclone_joni.htm Updated: 28 June 2017